createdAt,value
2019-03-09T00:02:47.811Z,14.53
2019-03-09T00:07:52.374Z,10.70
2019-03-09T00:12:56.807Z,12.68
2019-03-09T00:18:01.636Z,19.12
2019-03-09T00:23:10.905Z,21.90
2019-03-09T00:28:27.008Z,15.60
2019-03-09T00:33:31.442Z,21.75
2019-03-09T00:38:35.877Z,16.05
2019-03-09T00:43:40.392Z,22.47
2019-03-09T00:48:45.058Z,20.90
2019-03-09T00:53:49.795Z,24.47
2019-03-09T00:58:54.155Z,23.77
2019-03-09T01:03:58.666Z,22.97
2019-03-09T01:09:04.311Z,25.77
2019-03-09T01:14:10.375Z,19.05
2019-03-09T01:19:15.046Z,25.50
2019-03-09T01:24:19.782Z,17.83
2019-03-09T01:29:24.320Z,21.90
2019-03-09T01:34:28.831Z,19.73
2019-03-09T01:39:33.614Z,21.20
2019-03-09T01:44:38.134Z,20.33
2019-03-09T01:49:42.570Z,26.30
2019-03-09T01:54:50.425Z,21.60
2019-03-09T01:59:55.127Z,26.63
2019-03-09T02:04:59.535Z,21.35
2019-03-09T02:10:05.837Z,30.57
2019-03-09T02:15:12.119Z,22.93
2019-03-09T02:20:17.609Z,20.30
2019-03-09T02:25:22.215Z,19.10
2019-03-09T02:30:27.266Z,21.27
2019-03-09T02:35:31.779Z,21.17
2019-03-09T02:40:36.749Z,22.67
2019-03-09T02:45:41.278Z,21.37
2019-03-09T02:50:55.762Z,26.03
2019-03-09T02:56:00.501Z,19.20
2019-03-09T03:01:22.145Z,20.80
2019-03-09T03:06:26.875Z,21.97
2019-03-09T03:11:32.411Z,23.87
2019-03-09T03:16:36.973Z,22.00
2019-03-09T03:21:41.717Z,17.00
2019-03-09T03:26:46.149Z,21.33
2019-03-09T03:31:50.892Z,23.75
2019-03-09T03:36:55.326Z,23.47
2019-03-09T03:42:00.071Z,11.43
2019-03-09T03:47:04.502Z,15.67
2019-03-09T03:52:09.015Z,21.27
2019-03-09T03:57:14.298Z,19.32
2019-03-09T04:02:18.727Z,31.73
2019-03-09T04:07:23.470Z,25.55
2019-03-09T04:12:27.907Z,20.72
2019-03-09T04:17:32.646Z,21.48
2019-03-09T04:22:37.389Z,22.05
2019-03-09T04:27:42.129Z,25.85
2019-03-09T04:32:46.539Z,15.60
2019-03-09T04:37:51.895Z,21.37
2019-03-09T04:42:56.738Z,20.32
2019-03-09T04:48:02.632Z,26.10
2019-03-09T04:53:07.377Z,21.20
2019-03-09T04:58:12.715Z,19.85
2019-03-09T05:03:17.472Z,22.07
2019-03-09T05:08:28.358Z,20.82
2019-03-09T05:13:35.864Z,21.35
2019-03-09T05:18:40.299Z,24.30
2019-03-09T05:23:45.041Z,24.55
2019-03-09T05:28:49.478Z,25.68
2019-03-09T05:33:53.914Z,18.70
2019-03-09T05:38:58.349Z,24.57
2019-03-09T05:44:02.781Z,21.30
2019-03-09T05:49:07.300Z,26.35
2019-03-09T05:54:12.877Z,24.67
2019-03-09T05:59:18.543Z,26.20
2019-03-09T06:04:22.976Z,27.22
2019-03-09T06:09:27.387Z,27.50
2019-03-09T06:14:31.846Z,25.10
2019-03-09T06:19:36.324Z,27.22
2019-03-09T06:24:41.021Z,30.20
2019-03-09T06:29:45.371Z,36.17
2019-03-09T06:34:50.198Z,32.45
2019-03-09T06:39:56.948Z,25.60
2019-03-09T06:45:01.626Z,23.67
2019-03-09T06:50:09.497Z,23.90
2019-03-09T06:55:15.988Z,22.20
2019-03-09T07:00:32.529Z,21.65
2019-03-09T07:05:37.085Z,31.60
2019-03-09T07:10:42.748Z,30.82
2019-03-09T07:15:47.487Z,23.15
2019-03-09T07:20:51.923Z,23.00
2019-03-09T07:25:56.330Z,21.15
2019-03-09T07:31:01.111Z,26.25
2019-03-09T07:36:05.838Z,21.50
2019-03-09T07:41:10.580Z,28.25
2019-03-09T07:46:15.302Z,18.73
2019-03-09T07:51:20.067Z,19.73
2019-03-09T07:56:24.814Z,21.00
2019-03-09T08:01:32.005Z,20.30
2019-03-09T08:06:36.748Z,40.03
2019-03-09T08:11:41.182Z,45.12
2019-03-09T08:16:48.077Z,41.13
2019-03-09T08:21:52.857Z,27.70
2019-03-09T08:26:57.559Z,38.65
2019-03-09T08:32:02.316Z,24.70
2019-03-09T08:37:07.041Z,45.60
2019-03-09T08:42:11.788Z,55.40
2019-03-09T08:47:16.539Z,24.02
2019-03-09T08:52:21.064Z,19.82
2019-03-09T08:57:25.732Z,35.75
2019-03-09T09:02:31.058Z,23.50
2019-03-09T09:07:35.801Z,19.65
2019-03-09T09:12:40.542Z,18.20
2019-03-09T09:17:45.286Z,33.05
2019-03-09T09:22:49.795Z,48.38
2019-03-09T09:27:55.075Z,29.00
2019-03-09T09:32:59.573Z,17.65
2019-03-09T09:38:04.253Z,31.60
2019-03-09T09:43:08.762Z,55.20
2019-03-09T09:48:13.426Z,39.20
2019-03-09T09:53:17.866Z,123.62
2019-03-09T09:58:22.330Z,50.08
2019-03-09T10:03:27.655Z,109.05
2019-03-09T10:08:32.393Z,137.65
2019-03-09T10:13:36.907Z,74.47
2019-03-09T10:18:41.575Z,32.17
2019-03-09T10:23:46.040Z,16.23
2019-03-09T10:28:50.749Z,24.80
2019-03-09T10:33:55.488Z,17.75
2019-03-09T10:38:59.899Z,18.02
2019-03-09T10:44:04.358Z,20.30
2019-03-09T10:49:09.151Z,22.67
2019-03-09T10:54:13.843Z,29.77
2019-03-09T10:59:18.276Z,22.98
2019-03-09T11:04:27.583Z,18.40
2019-03-09T11:09:29.582Z,24.95
2019-03-09T11:14:34.329Z,17.23
2019-03-09T11:19:39.062Z,19.45
2019-03-09T11:24:43.522Z,16.57
2019-03-09T11:29:48.160Z,86.50
2019-03-09T11:34:52.817Z,21.93
2019-03-09T11:39:57.234Z,29.40
2019-03-09T11:45:01.991Z,32.10
2019-03-09T11:50:09.789Z,7.30
2019-03-09T12:00:25.494Z,8.25
2019-03-09T12:05:30.158Z,13.38
2019-03-09T12:10:34.911Z,7.30
2019-03-09T12:15:40.646Z,18.37
2019-03-09T12:20:45.306Z,38.17
2019-03-09T12:25:49.818Z,11.30
2019-03-09T12:30:54.859Z,9.78
2019-03-09T12:35:59.303Z,9.18
2019-03-09T12:41:03.976Z,14.80
2019-03-09T12:46:26.254Z,17.25
2019-03-09T12:51:30.963Z,11.03
2019-03-09T12:56:35.704Z,11.93
2019-03-09T13:01:40.141Z,10.50
2019-03-09T13:06:44.879Z,8.65
2019-03-09T13:11:49.623Z,8.83
2019-03-09T13:16:54.367Z,9.95
2019-03-09T13:21:59.103Z,10.68
2019-03-09T13:27:03.839Z,8.63
2019-03-09T13:32:08.588Z,12.33
2019-03-09T13:37:13.332Z,7.92
2019-03-09T13:42:17.729Z,1.77
2019-03-09T13:47:22.198Z,4.28
2019-03-09T13:52:27.275Z,8.78
2019-03-09T13:57:31.775Z,4.87
2019-03-09T14:02:36.424Z,4.80
2019-03-09T14:07:41.167Z,17.02
2019-03-09T14:12:46.828Z,7.45
2019-03-09T14:17:51.573Z,9.80
2019-03-09T14:22:56.101Z,9.25
2019-03-09T14:28:00.659Z,7.58
2019-03-09T14:33:05.489Z,5.65
2019-03-09T14:38:11.151Z,7.40
2019-03-09T14:43:15.670Z,7.15
2019-03-09T14:48:20.329Z,7.75
2019-03-09T14:53:25.069Z,8.25
2019-03-09T14:58:29.508Z,18.30
2019-03-09T15:03:34.246Z,11.18
2019-03-09T15:08:38.690Z,9.63
2019-03-09T15:13:43.195Z,12.30
2019-03-09T15:18:49.088Z,15.08
2019-03-09T15:23:53.827Z,13.72
2019-03-09T15:28:58.272Z,11.65
2019-03-09T15:34:02.781Z,7.60
2019-03-09T15:39:08.064Z,3.50
2019-03-09T15:44:14.333Z,11.20
2019-03-09T15:49:18.868Z,4.22
2019-03-09T15:54:23.594Z,6.20
2019-03-09T15:59:27.990Z,9.30
2019-03-09T16:04:32.683Z,6.47
2019-03-09T16:09:38.961Z,4.28
2019-03-09T16:14:43.681Z,7.28
2019-03-09T16:19:48.147Z,7.35
2019-03-09T16:24:52.882Z,11.22
2019-03-09T16:29:57.769Z,9.23
2019-03-09T16:35:02.362Z,10.15
2019-03-09T16:40:10.489Z,10.10
2019-03-09T16:50:19.664Z,9.93
2019-03-09T16:55:24.708Z,11.90
2019-03-09T17:00:29.219Z,9.35
2019-03-09T17:05:33.968Z,10.90
2019-03-09T17:10:38.634Z,14.20
2019-03-09T17:15:44.072Z,13.03
2019-03-09T17:20:48.725Z,35.85
2019-03-09T17:25:53.245Z,46.28
2019-03-09T17:30:57.909Z,21.50
2019-03-09T17:36:02.357Z,20.50
2019-03-09T17:41:07.078Z,25.65
2019-03-09T17:46:11.597Z,32.00
2019-03-09T17:51:16.254Z,23.20
2019-03-09T17:56:29.353Z,21.97
2019-03-09T18:01:35.571Z,41.18
2019-03-09T18:06:39.979Z,41.95
2019-03-09T18:11:45.058Z,35.55
2019-03-09T18:16:52.711Z,24.02
2019-03-09T18:21:55.764Z,23.20
2019-03-09T18:27:00.200Z,23.55
2019-03-09T18:32:04.710Z,35.40
2019-03-09T18:37:09.389Z,17.00
2019-03-09T18:42:14.117Z,30.37
2019-03-09T18:47:18.551Z,13.25
2019-03-09T18:52:22.985Z,10.43
2019-03-09T18:57:27.420Z,21.87
2019-03-09T19:02:31.913Z,29.95
2019-03-09T19:07:36.371Z,23.35
2019-03-09T19:12:41.030Z,30.68
2019-03-09T19:17:45.778Z,45.45
2019-03-09T19:22:50.518Z,43.98
2019-03-09T19:27:54.957Z,33.73
2019-03-09T19:33:00.885Z,33.78
2019-03-09T19:38:05.662Z,49.27
2019-03-09T19:43:10.098Z,52.33
2019-03-09T19:48:14.838Z,133.95
2019-03-09T19:53:19.361Z,99.80
2019-03-09T19:58:25.244Z,56.88
2019-03-09T20:03:29.985Z,54.63
2019-03-09T20:08:35.483Z,38.38
2019-03-09T20:13:40.059Z,36.53
2019-03-09T20:18:44.599Z,117.30
2019-03-09T20:23:49.566Z,252.75
2019-03-09T20:28:54.079Z,78.50
2019-03-09T20:33:58.745Z,79.27
2019-03-09T20:39:03.792Z,80.45
2019-03-09T20:44:10.076Z,141.75
2019-03-09T20:49:14.584Z,91.97
2019-03-09T20:54:19.553Z,34.80
2019-03-09T20:59:24.295Z,55.78
2019-03-09T21:04:29.045Z,42.15
2019-03-09T21:09:33.472Z,102.78
2019-03-09T21:14:37.915Z,256.87
2019-03-09T21:19:42.648Z,31.75
2019-03-09T21:24:47.103Z,40.67
2019-03-09T21:29:51.840Z,25.37
2019-03-09T21:34:56.880Z,22.37
2019-03-09T21:40:01.397Z,17.65
2019-03-09T21:45:09.122Z,23.85
2019-03-09T21:50:17.121Z,19.75
2019-03-09T21:55:22.609Z,21.05
2019-03-09T22:00:27.323Z,39.55
2019-03-09T22:05:31.893Z,113.12
2019-03-09T22:10:36.391Z,80.40
2019-03-09T22:15:41.072Z,123.07
2019-03-09T22:20:45.797Z,184.25
2019-03-09T22:25:50.319Z,107.17
2019-03-09T22:30:54.973Z,95.62
2019-03-09T22:35:59.417Z,31.73
2019-03-09T22:41:04.154Z,31.57
2019-03-09T22:46:08.589Z,27.45
2019-03-09T22:51:13.327Z,29.23
2019-03-09T22:56:17.759Z,21.00
2019-03-09T23:01:22.501Z,20.00
2019-03-09T23:06:27.243Z,19.85
2019-03-09T23:11:31.985Z,28.52
2019-03-09T23:16:36.727Z,20.57
2019-03-09T23:21:41.470Z,14.73
2019-03-09T23:26:45.966Z,14.07
2019-03-09T23:31:50.645Z,17.67
2019-03-09T23:36:55.133Z,17.87
2019-03-09T23:41:59.822Z,15.95
2019-03-09T23:47:04.606Z,14.83
2019-03-09T23:52:09.102Z,13.28
2019-03-09T23:57:13.527Z,14.35
